Temp     Hi    Low   Out         Wind        Wind    Hi    Hi   Wind   Heat          THSW                Rain  Solar   Solar Hi Solar         UV    Hi     Heat    Cool    In     In    In     In           Wind  Wind    ISS   Arc.
  Date    Time     Out   Temp   Temp   Hum    Dew Speed   Dir   Run Speed   Dir  Chill  Index    THW  Index   Bar    Rain  Rate   Rad.  Energy    Rad.    UV   Dose   UV     D-D     D-D    Temp   Hum    Dew   Heat     ET   Samp   Tx   Recept  Int.
--------------------------------------------------------------------------------------------------------------------------------------------------------------------------------------------------------------------------------------------------------
 6/01/11 12:30a   79.8   79.9   79.7    89   76.3   1.0     E  0.50   4.0     E   79.8   86.1   86.1   84.6  30.018  0.00  0.00     0     0.00      0     0.0  0.00   0.0   0.000   0.308   80.8    68   69.2   83.7   0.000   621    1     90.8   30 
 6/01/11  1:00a   79.4   79.8   79.4    90   76.2   0.0   ---  0.00   0.0   ---   79.4   85.5   85.5   84.0  30.008  0.00  0.00     0     0.00      0     0.0  0.00   0.0   0.000   0.300   80.6    69   69.5   83.6   0.000   665    1     97.2   30 
 6/01/11  1:30a   79.4   79.5   79.4    90   76.2   0.0     E  0.00   2.0     E   79.4   85.5   85.5   84.0  30.001  0.00  0.00     0     0.00      0     0.0  0.00   0.0   0.000   0.300   80.5    70   69.8   83.6   0.000   676    1     98.8   30 
 6/01/11  2:00a   79.1   79.4   79.1    90   75.9   0.0   ---  0.00   0.0   ---   79.1   84.9   84.9   83.3  29.989  0.00  0.00     0     0.00      0     0.0  0.00   0.0   0.000   0.294   80.3    70   69.6   83.2   0.000   682    1     99.7   30 
 6/01/11  2:30a   79.1   79.2   78.9    90   75.9   0.0     E  0.00   2.0     E   79.1   84.9   84.9   83.3  29.982  0.00  0.00     0     0.00      0     0.0  0.00   0.0   0.000   0.294   80.3    71   70.0   83.4   0.000   677    1     99.0   30 
 6/01/11  3:00a   78.9   79.2   78.9    91   76.0   0.0     E  0.00   2.0     E   78.9   84.7   84.7   83.2  29.981  0.00  0.00     0     0.00      0     0.0  0.00   0.0   0.000   0.290   80.1    71   69.8   83.1   0.000   672    1     98.2   30 
 6/01/11  3:30a   78.6   78.9   78.6    91   75.8   0.0   ---  0.00   0.0   ---   78.6   84.1   84.1   82.5  29.964  0.00  0.00     0     0.00      0     0.0  0.00   0.0   0.000   0.283   80.1    71   69.8   83.1   0.000   662    1     96.8   30 
 6/01/11  4:00a   78.3   78.6   78.3    92   75.8   0.0     E  0.00   1.0     E   78.3   83.7   83.7   82.8  29.963  0.00  0.00     0     0.00      0     0.0  0.00   0.0   0.000   0.277   80.1    72   70.3   83.2   0.000   682    1     99.7   30 
 6/01/11  4:30a   78.0   78.3   78.0    91   75.2   1.0   ESE  0.50   4.0     E   78.0   82.9   82.9   82.0  29.973  0.00  0.00     0     0.00      0     0.0  0.00   0.0   0.000   0.271   80.1    72   70.3   83.2   0.000   679    1     99.3   30 
 6/01/11  5:00a   77.7   78.0   77.7    91   74.9   0.0   ESE  0.00   2.0   ESE   77.7   82.4   82.4   81.4  29.972  0.00  0.00     0     0.00      0     0.0  0.00   0.0   0.000   0.265   80.1    72   70.3   83.2   0.000   687    1    100.0   30 
 6/01/11  5:30a   77.5   77.7   77.5    92   75.0   0.0   ESE  0.00   1.0   ESE   77.5   82.1   82.1   81.1  29.973  0.00  0.00     0     0.00      0     0.0  0.00   0.0   0.000   0.260   80.1    72   70.3   83.2   0.000   683    1     99.9   30 
 6/01/11  6:00a   77.3   77.5   77.3    92   74.8   0.0   ESE  0.00   1.0   ESE   77.3   81.8   81.8   80.9  29.973  0.00  0.00     3     0.13     14     0.0  0.00   0.0   0.000   0.256   80.1    73   70.7   83.4   0.000   670    1     98.0   30 
 6/01/11  6:30a   78.0   78.0   77.3    92   75.5   0.0     W  0.00   2.0    SW   78.0   83.0   83.0   83.6  29.982  0.00  0.00    55     2.37    104     0.0  0.00   0.0   0.000   0.271   80.1    73   70.7   83.4   0.000   663    1     96.9   30 
 6/01/11  7:00a   79.1   79.1   78.0    90   75.9   0.0    SW  0.00   2.0    SW   79.1   84.9   84.9   87.1  29.980  0.00  0.00   124     5.33    195     0.3  0.06   0.7   0.000   0.294   80.1    73   70.7   83.4   0.002   643    1     94.0   30 
 6/01/11  7:30a   80.4   80.4   79.1    87   76.2   2.0    SE  1.00   6.0   ESE   80.4   87.0   87.0   91.7  29.986  0.00  0.00   226     9.72    318     1.1  0.24   1.4   0.000   0.321   80.1    74   71.1   83.6   0.000   669    1     97.8   30 
 6/01/11  8:00a   80.9   80.9   80.3    87   76.7   4.0   ESE  2.00   8.0   ESE   80.9   88.1   88.1   93.7  29.994  0.01  0.00   267    11.48    406     1.8  0.39   2.5   0.000   0.331   80.1    74   71.1   83.6   0.007   658    1     96.2   30 
 6/01/11  8:30a   81.8   82.0   80.8    84   76.5   5.0     E  2.50  10.0     E   81.8   89.6   89.6   98.4  30.000  0.00  0.00   427    18.36    504     3.2  0.69   4.1   0.000   0.350   80.1    75   71.5   83.8   0.000   650    1     95.0   30 
 6/01/11  9:00a   83.0   83.0   81.6    82   76.9   6.0     E  3.00  13.0   ESE   83.0   92.3   92.3  102.9  30.000  0.00  0.00   539    23.18    633     4.7  1.01   5.8   0.000   0.375   80.1    75   71.5   83.8   0.012   635    1     92.8   30 
 6/01/11  9:30a   83.6   83.6   83.0    82   77.5   7.0     E  3.50  13.0     E   83.6   94.0   94.0  105.0  30.005  0.00  0.00   576    24.77    715     6.2  1.33   7.8   0.000   0.387   80.1    75   71.5   83.8   0.000   627    1     91.7   30 
 6/01/11 10:00a   83.7   84.1   83.4    80   76.9   4.0   ENE  2.00  14.0   ENE   83.7   93.7   93.7   99.6  30.001  0.00  0.00   270    11.61    738     5.1  1.09   7.8   0.000   0.390   79.9    70   69.2   82.6   0.012   650    1     95.0   30 
 6/01/11 10:30a   85.5   85.8   83.6    74   76.3   7.0   ENE  3.50  14.0   ENE   85.5   95.5   95.5  108.0  30.002  0.00  0.00   868    37.33   1000    10.0  2.14  11.6   0.000   0.427   77.9    59   62.4   78.7   0.000   639    1     93.4   30 
 6/01/11 11:00a   83.5   85.6   83.5    80   76.7   7.0   ENE  3.50  14.0    NE   83.5   93.1   93.1   96.9  30.010  0.00  0.00   197     8.47    573     4.1  0.88  10.0   0.000   0.385   77.0    55   59.6   77.3   0.015   648    1     94.7   30 
 6/01/11 11:30a   79.4   83.5   79.4    91   76.5   5.0   ESE  2.50  13.0   ESE   79.4   85.8   85.8   88.1  30.015  0.00  0.00   131     5.63    246     2.5  0.54   4.4   0.000   0.300   76.3    53   57.9   76.5   0.000   662    1     96.8   30 
 6/01/11 12:00p   80.7   81.4   79.4    88   76.8   5.0   ENE  2.50  16.0    SE   80.7   87.9   87.9   95.7  30.002  0.00  0.00   366    15.74    708     6.8  1.46  10.6   0.000   0.327   75.6    51   56.2   75.7   0.007   663    1     96.9   30 
 6/01/11 12:30p   78.5   80.6   78.5    84   73.3   8.0    SE  4.00  15.0    SE   78.1   82.7   82.3   85.5  29.999  0.00  0.00   165     7.10    264     3.2  0.69   4.9   0.000   0.281   75.0    52   56.2   75.3   0.000   634    1     92.7   30 
 6/01/11  1:00p   76.6   78.5   76.4    86   72.1   5.0    SE  2.50  14.0    SE   76.6   80.1   80.1   81.6  30.005  0.00  0.00    87     3.74    125     1.6  0.34   2.2   0.000   0.242   75.0    52   56.2   75.3   0.004   639    1     93.4   30 
 6/01/11  1:30p   78.1   78.1   76.6    89   74.6   2.0    SE  1.00   9.0    SE   78.1   82.8   82.8   85.4  29.996  0.01  0.00   108     4.64    121     1.9  0.41   2.2   0.000   0.273   75.0    50   55.1   75.1   0.000   674    1     98.5   30 
 6/01/11  2:00p   76.7   78.1   76.7    90   73.5   7.0    SE  3.50  15.0   ESE   76.7   80.5   80.5   83.3  29.999  0.00  0.00   100     4.30    165     1.5  0.32   2.7   0.000   0.244   74.9    50   55.0   75.0   0.003   659    1     96.3   30 
 6/01/11  2:30p   77.1   77.1   76.7    88   73.3   6.0    SE  3.00  12.0    SE   77.1   81.0   81.0   84.9  29.997  0.00  0.00   116     4.99    165     1.7  0.36   2.7   0.000   0.252   74.7    50   54.8   74.7   0.000   642    1     93.9   30 
 6/01/11  3:00p   76.7   77.1   76.6    88   72.9   4.0    SE  2.00  12.0    SE   76.7   80.4   80.4   82.1  29.988  0.00  0.00    56     2.41     86     0.4  0.09   1.4   0.000   0.244   74.7    51   55.4   74.8   0.003   649    1     94.9   30 
 6/01/11  3:30p   76.5   76.7   76.4    90   73.3   1.0    SE  0.50   8.0    SE   76.5   80.3   80.3   80.3  29.977  0.00  0.00    61     2.62     76     0.5  0.11   1.0   0.000   0.240   74.5    50   54.6   74.4   0.000   670    1     98.0   30 
 6/01/11  4:00p   76.9   77.0   76.5    89   73.4   1.0   SSW  0.50   5.0   SSW   76.9   80.8   80.8   81.5  29.972  0.00  0.00    89     3.83     95     1.1  0.24   1.1   0.000   0.248   74.9    51   55.6   75.0   0.002   678    1     99.1   30 
 6/01/11  4:30p   77.7   77.7   76.8    88   73.9   0.0   SSW  0.00   2.0   SSW   77.7   82.0   82.0   82.8  29.968  0.00  0.00    96     4.13    123     1.0  0.21   1.2   0.000   0.265   75.7    53   57.4   75.9   0.000   654    1     95.6   30 
 6/01/11  5:00p   78.2   78.2   77.7    89   74.7   1.0   SSE  0.50   5.0   SSE   78.2   83.0   83.0   84.6  29.971  0.00  0.00   125     5.38    155     1.1  0.24   1.2   0.000   0.275   76.4    55   59.0   76.7   0.003   667    1     97.5   30 
 6/01/11  5:30p   78.9   78.9   78.2    88   75.0   1.0   SSE  0.50   7.0    SE   78.9   84.1   84.1   85.9  29.967  0.00  0.00   131     5.63    156     0.8  0.17   1.1   0.000   0.290   76.8    57   60.4   77.3   0.000   680    1     99.4   30 
 6/01/11  6:00p   79.1   79.2   78.9    89   75.6   3.0    SE  1.50   8.0    SE   79.1   84.7   84.7   85.0  29.954  0.00  0.00    66     2.84     93     0.2  0.04   0.6   0.000   0.294   77.2    58   61.3   77.8   0.003   676    1     98.8   30 
 6/01/11  6:30p   79.0   79.2   78.9    88   75.1   1.0    SE  0.50   4.0    SE   79.0   84.3   84.3   83.7  29.961  0.00  0.00    29     1.25     47     0.0  0.00   0.0   0.000   0.292   77.3    60   62.3   78.1   0.000   689    1    100.0   30 
 6/01/11  7:00p   79.2   79.2   79.0    88   75.3   0.0    SE  0.00   2.0    SE   79.2   84.7   84.7   83.5  29.966  0.00  0.00     5     0.22     14     0.0  0.00   0.0   0.000   0.296   77.5    61   63.0   78.4   0.001   685    1    100.0   30 
 6/01/11  7:30p   79.1   79.2   79.1    88   75.2   1.0    SE  0.50   2.0    SE   79.1   84.5   84.5   83.2  29.974  0.00  0.00     0     0.00      0     0.0  0.00   0.0   0.000   0.294   77.7    62   63.6   78.8   0.000   677    1     99.0   30 
 6/01/11  8:00p   78.9   79.3   78.9    87   74.7   0.0    SE  0.00   2.0    SE   78.9   83.9   83.9   82.6  29.989  0.00  0.00     0     0.00      0     0.0  0.00   0.0   0.000   0.290   77.9    63   64.3   79.1   0.001   697    1    100.0   30 
 6/01/11  8:30p   78.7   79.0   78.7    86   74.2   1.0   SSE  0.50   6.0   SSW   78.7   83.4   83.4   82.1  30.005  0.00  0.00     0     0.00      0     0.0  0.00   0.0   0.000   0.285   77.9    64   64.7   79.2   0.000   698    1    100.0   30 
 6/01/11  9:00p   78.4   78.7   78.4    87   74.2   2.0    SW  1.00   7.0   SSW   78.4   83.1   83.1   81.8  30.017  0.00  0.00     0     0.00      0     0.0  0.00   0.0   0.000   0.279   78.0    64   64.8   79.3   0.001   696    1    100.0   30 
 6/01/11  9:30p   75.9   78.4   75.9    92   73.4   4.0   ESE  2.00  19.0   ESE   75.9   79.6   79.6   78.2  30.026  0.00  0.00     0     0.00      0     0.0  0.00   0.0   0.000   0.227   78.2    65   65.5   79.7   0.000   684    1    100.0   30 
 6/01/11 10:00p   75.4   75.9   75.3    91   72.6   0.0     E  0.00   4.0   ESE   75.4   78.9   78.9   77.5  30.033  0.00  0.00     0     0.00      0     0.0  0.00   0.0   0.000   0.217   78.2    66   65.9   79.8   0.001   683    1     99.9   30 
 6/01/11 10:30p   76.2   76.3   75.3    91   73.4   1.0     E  0.50   5.0     E   76.2   79.9   79.9   78.5  30.029  0.00  0.00     0     0.00      0     0.0  0.00   0.0   0.000   0.233   78.4    67   66.5   80.2   0.000   691    1    100.0   30 
 6/01/11 11:00p   76.5   76.5   76.2    91   73.7   1.0   ESE  0.50   5.0   ESE   76.5   80.3   80.3   78.9  30.033  0.00  0.00     0     0.00      0     0.0  0.00   0.0   0.000   0.240   78.4    67   66.5   80.2   0.000   697    1    100.0   30 
 6/01/11 11:30p   76.3   76.6   76.3    88   72.5   2.0   ESE  1.00   5.0   ESE   76.3   79.8   79.8   78.4  30.027  0.00  0.00     0     0.00      0     0.0  0.00   0.0   0.000   0.235   78.4    68   67.0   80.3   0.000   702    1    100.0   30 
 6/02/11 12:00a   76.3   76.3   76.2    89   72.8   1.0    SE  0.50   5.0    SE   76.3   79.9   79.9   78.5  30.013  0.00  0.00     0     0.00      0     0.0  0.00   0.0   0.000   0.235   78.4    68   67.0   80.3   0.001   694    1    100.0   30 
 6/02/11 12:30a   76.3   76.4   76.3    89   72.8   1.0    SW  0.50   6.0   SSE   76.3   79.9   79.9   78.5  29.998  0.00  0.00     0     0.00      0     0.0  0.00   0.0   0.000   0.235   78.4    69   67.4   80.4   0.000   683    1     99.9   30 
 6/02/11  1:00a   76.2   76.3   76.1    90   73.1   0.0    SW  0.00   1.0    SW   76.2   79.8   79.8   78.4  29.981  0.00  0.00     0     0.00      0     0.0  0.00   0.0   0.000   0.233   78.6    69   67.6   80.7   0.000   691    1    100.0   30 
 6/02/11  1:30a   76.4   76.4   76.2    91   73.6   0.0    SW  0.00   1.0    SW   76.4   80.2   80.2   78.8  29.971  0.00  0.00     0     0.00      0     0.0  0.00   0.0   0.000   0.238   78.6    70   68.0   80.8   0.000   697    1    100.0   30 
 6/02/11  2:00a   76.6   76.6   76.4    91   73.8   1.0    SW  0.50   2.0    SW   76.6   80.5   80.5   79.1  29.966  0.00  0.00     0     0.00      0     0.0  0.00   0.0   0.000   0.242   78.6    70   68.0   80.8   0.000   696    1    100.0   30 
 6/02/11  2:30a   76.5   76.7   76.4    91   73.7   0.0   ---  0.00   0.0   ---   76.5   80.3   80.3   78.9  29.961  0.01  0.00     0     0.00      0     0.0  0.00   0.0   0.000   0.240   78.6    70   68.0   80.8   0.000   679    1     99.3   30 
 6/02/11  3:00a   76.7   76.8   76.5    91   73.9   0.0    SW  0.00   3.0    SW   76.7   80.6   80.6   79.2  29.956  0.00  0.00     0     0.00      0     0.0  0.00   0.0   0.000   0.244   78.6    70   68.0   80.8   0.000   672    1     98.2   30 
 6/02/11  3:30a   76.4   76.7   76.4    92   73.9   0.0   ---  0.00   0.0   ---   76.4   80.3   80.3   78.9  29.945  0.00  0.00     0     0.00      0     0.0  0.00   0.0   0.000   0.238   78.6    71   68.4   80.9   0.000   668    1     97.7   30 
 6/02/11  4:00a   76.5   76.6   76.4    92   74.0   0.0    SW  0.00   2.0    SW   76.5   80.4   80.4   79.4  29.946  0.00  0.00     0     0.00      0     0.0  0.00   0.0   0.000   0.240   78.6    71   68.4   80.9   0.000   681    1     99.6   30 
 6/02/11  4:30a   76.6   76.6   76.5    92   74.1   1.0    SW  0.50   3.0    SW   76.6   80.6   80.6   79.6  29.947  0.00  0.00     0     0.00      0     0.0  0.00   0.0   0.000   0.242   78.8    71   68.6   81.2   0.000   682    1     99.7   30 
 6/02/11  5:00a   76.6   76.6   76.5    93   74.4   1.0    SW  0.50   3.0    SW   76.6   80.7   80.7   79.7  29.953  0.00  0.00     0     0.00      0     0.0  0.00   0.0   0.000   0.242   78.8    72   69.0   81.3   0.000   688    1    100.0   30 
 6/02/11  5:30a   76.7   76.7   76.6    92   74.2   0.0    SW  0.00   2.0    SW   76.7   80.7   80.7   79.7  29.951  0.00  0.00     0     0.00      0     0.0  0.00   0.0   0.000   0.244   78.8    72   69.0   81.3   0.000   677    1     99.0   30 
 6/02/11  6:00a   76.8   76.9   76.7    92   74.3   0.0    SW  0.00   2.0    SW   76.8   80.9   80.9   80.2  29.959  0.00  0.00     9     0.39     26     0.0  0.00   0.0   0.000   0.246   78.8    73   69.4   81.4   0.000   678    1     99.1   30 
 6/02/11  6:30a   77.1   77.1   76.8    92   74.6   0.0    SW  0.00   4.0    SW   77.1   81.4   81.4   81.6  29.969  0.00  0.00    45     1.94     58     0.0  0.00   0.0   0.000   0.252   78.8    73   69.4   81.4   0.000   683    1     99.9   30 
 6/02/11  7:00a   78.0   78.0   77.1    91   75.2   0.0    SW  0.00   3.0    SW   78.0   82.9   82.9   84.9  29.977  0.00  0.00   115     4.95    179     0.3  0.06   0.7   0.000   0.271   78.8    73   69.4   81.4   0.002   686    1    100.0   30 
 6/02/11  7:30a   80.7   80.7   78.0    88   76.8   0.0    SW  0.00   2.0    SW   80.7   87.9   87.9   92.6  29.984  0.00  0.00   227     9.76    292     1.1  0.24   1.5   0.000   0.327   78.8    74   69.8   81.6   0.000   679    1     99.3   30 
 6/02/11  8:00a   82.0   82.0   80.7    85   77.0   2.0   ESE  1.00   7.0   ESE   82.0   90.4   90.4   98.0  29.984  0.00  0.00   364    15.65    436     2.1  0.45   2.8   0.000   0.354   78.8    74   69.8   81.6   0.007   681    1     99.6   30 
 6/02/11  8:30a   82.6   83.2   82.1    82   76.5   2.0   ESE  1.00   6.0   ESE   82.6   91.2   91.2   99.7  29.980  0.00  0.00   412    17.72    538     3.2  0.69   3.7   0.000   0.367   78.8    74   69.8   81.6   0.000   651    1     95.2   30 
 6/02/11  9:00a   82.6   83.0   82.4    82   76.5   3.0     E  1.50   7.0     E   82.6   91.2   91.2  100.9  29.988  0.00  0.00   475    20.43    802     4.6  0.99   5.8   0.000   0.367   79.0    75   70.4   82.0   0.012   650    1     95.0   30 
 6/02/11  9:30a   83.0   83.0   82.6    82   76.9   4.0     E  2.00  11.0     E   83.0   92.3   92.3  101.9  29.989  0.00  0.00   460    19.78    687     5.9  1.26   9.0   0.000   0.375   79.0    75   70.4   82.0   0.000   657    1     96.1   30 
 6/02/11 10:00a   81.5   83.5   81.5    78   74.0   7.0    SE  3.50  14.0    SE   81.5   87.2   87.2   95.1  29.984  0.00  0.00   390    16.77    547     5.5  1.18   7.5   0.000   0.344   79.0    76   70.8   82.2   0.012   638    1     93.3   30 
 6/02/11 10:30a   81.3   81.6   80.9    83   75.6   5.0   ESE  2.50  11.0   ESE   81.3   88.0   88.0   93.8  29.986  0.00  0.00   276    11.87    376     4.9  1.05   9.0   0.000   0.340   79.0    76   70.8   82.2   0.000   667    1     97.5   30 
 6/02/11 11:00a   82.7   82.7   81.2    82   76.6   1.0   ESE  0.50   5.0   ESE   82.7   91.4   91.4   97.1  29.982  0.00  0.00   271    11.65    411     4.6  0.99   7.3   0.000   0.369   79.0    76   70.8   82.2   0.008   656    1     95.9   30 
 6/02/11 11:30a   84.5   84.5   82.7    76   76.1   2.0   ESE  1.00   5.0   ESE   84.5   94.0   94.0  104.0  29.979  0.01  0.00   507    21.80    596     8.9  1.91  10.2   0.000   0.406   79.0    76   70.8   82.2   0.000   645    1     94.3   30 
 6/02/11 12:00p   85.1   85.2   84.5    77   77.1   3.0     E  1.50  10.0    NE   85.1   95.6   95.6  107.0  29.970  0.00  0.00   589    25.33    731    10.6  2.27  13.1   0.000   0.419   79.0    76   70.8   82.2   0.015   646    1     94.4   30 
 6/02/11 12:30p   84.5   85.1   84.4    78   76.9   4.0    NE  2.00  11.0    NE   84.5   94.7   94.7  106.5  29.965  0.00  0.00   601    25.85    721    10.6  2.27  13.1   0.000   0.406   79.0    75   70.4   82.0   0.000   672    1     98.2   30 
 6/02/11  1:00p   80.4   84.5   80.4    85   75.5   7.0   ENE  3.50  21.0   ENE   80.4   86.5   86.5   91.3  29.965  0.00  0.00   204     8.77    533     3.9  0.84   9.5   0.000   0.321   78.8    75   70.2   81.7   0.012   647    1     94.6   30 
 6/02/11  1:30p   75.6   80.4   75.6    91   72.8   5.0   ESE  2.50  15.0   ESE   75.6   79.1   79.1   80.0  29.970  0.00  0.00    60     2.58     81     0.6  0.13   1.5   0.000   0.221   78.8    75   70.2   81.7   0.000   662    1     96.8   30 
 6/02/11  2:00p   75.6   76.4   75.5    91   72.8   4.0   ESE  2.00  15.0     E   75.6   79.1   79.1   79.7  29.975  0.00  0.00    43     1.85     81     0.2  0.04   1.5   0.000   0.221   78.8    74   69.8   81.6   0.002   674    1     98.5   30 
 6/02/11  2:30p   75.3   75.6   74.9    91   72.5   6.0   ENE  3.00  14.0    NE   75.3   78.8   78.8   80.1  29.956  0.00  0.00    53     2.28     67     0.4  0.09   1.1   0.000   0.215   79.0    74   70.0   81.9   0.000   672    1     98.2   30 
 6/02/11  3:00p   75.7   75.7   75.3    87   71.6   0.0     E  0.00   6.0     E   75.7   79.0   79.0   81.4  29.951  0.00  0.00    73     3.14     79     1.2  0.26   1.3   0.000   0.223   78.8    73   69.4   81.4   0.002   692    1    100.0   30